createdAt,value
2018-05-14T00:00:00.969Z,3.43
2018-05-14T00:02:28.372Z,3.70
2018-05-14T00:04:55.754Z,3.43
2018-05-14T00:07:23.149Z,2.97
2018-05-14T00:09:50.533Z,3.37
2018-05-14T00:12:17.954Z,3.60
2018-05-14T00:14:45.335Z,3.40
2018-05-14T00:17:12.733Z,2.97
2018-05-14T00:19:40.122Z,3.20
2018-05-14T00:22:07.617Z,3.57
2018-05-14T00:24:35.002Z,3.57
2018-05-14T00:27:02.430Z,3.30
2018-05-14T00:29:29.813Z,3.63
2018-05-14T00:31:57.254Z,3.23
2018-05-14T00:34:24.665Z,3.37
2018-05-14T00:36:52.163Z,3.03
2018-05-14T00:39:19.552Z,2.70
2018-05-14T00:41:46.937Z,3.73
2018-05-14T00:44:14.357Z,3.30
2018-05-14T00:46:41.757Z,3.23
2018-05-14T00:49:09.152Z,3.30
2018-05-14T00:51:36.541Z,3.57
2018-05-14T00:54:03.998Z,3.00
2018-05-14T00:56:31.400Z,3.33
2018-05-14T00:58:58.806Z,3.83
2018-05-14T01:01:26.263Z,3.13
2018-05-14T01:03:53.691Z,3.43
2018-05-14T01:06:21.078Z,3.40
2018-05-14T01:08:48.470Z,3.07
2018-05-14T01:11:15.856Z,3.20
2018-05-14T01:13:43.255Z,3.10
2018-05-14T01:16:10.637Z,3.10
2018-05-14T01:18:38.056Z,3.77
2018-05-14T01:21:05.469Z,3.47
2018-05-14T01:23:32.970Z,4.07
2018-05-14T01:26:00.361Z,3.77
2018-05-14T01:28:27.785Z,3.40
2018-05-14T01:30:55.229Z,4.03
2018-05-14T01:33:22.626Z,3.40
2018-05-14T01:35:50.010Z,3.73
2018-05-14T01:38:17.504Z,3.60
2018-05-14T01:40:44.974Z,3.10
2018-05-14T01:43:12.365Z,3.23
2018-05-14T01:45:39.788Z,4.30
2018-05-14T01:48:07.166Z,3.77
2018-05-14T01:50:34.581Z,3.50
2018-05-14T01:53:01.977Z,3.60
2018-05-14T01:55:29.365Z,4.43
2018-05-14T01:57:56.757Z,3.83
2018-05-14T02:00:24.145Z,3.63
2018-05-14T02:02:51.565Z,3.30
2018-05-14T02:05:18.961Z,3.97
2018-05-14T02:07:46.355Z,3.67
2018-05-14T02:10:13.744Z,4.20
2018-05-14T02:12:41.192Z,3.87
2018-05-14T02:15:08.590Z,3.80
2018-05-14T02:17:36.000Z,4.20
2018-05-14T02:20:03.407Z,3.60
2018-05-14T02:22:30.785Z,3.90
2018-05-14T02:24:58.179Z,3.90
2018-05-14T02:27:25.581Z,4.07
2018-05-14T02:29:52.965Z,3.97
2018-05-14T02:32:20.368Z,3.97
2018-05-14T02:34:47.745Z,4.13
2018-05-14T02:37:15.137Z,3.73
2018-05-14T02:39:42.537Z,4.40
2018-05-14T02:42:09.945Z,3.90
2018-05-14T02:44:37.418Z,3.93
2018-05-14T02:47:04.875Z,4.23
2018-05-14T02:49:32.342Z,4.00
2018-05-14T02:51:59.732Z,4.30
2018-05-14T02:54:27.157Z,3.53
2018-05-14T02:56:54.541Z,4.30
2018-05-14T02:59:21.952Z,5.17
2018-05-14T03:01:49.414Z,4.07
2018-05-14T03:04:16.817Z,4.03
2018-05-14T03:06:44.214Z,4.33
2018-05-14T03:09:11.622Z,4.53
2018-05-14T03:11:39.017Z,3.70
2018-05-14T03:14:06.405Z,3.87
2018-05-14T03:16:33.793Z,4.47
2018-05-14T03:19:01.193Z,4.40
2018-05-14T03:21:28.654Z,4.80
2018-05-14T03:23:56.066Z,4.27
2018-05-14T03:26:23.454Z,4.63
2018-05-14T03:28:50.845Z,4.50
2018-05-14T03:31:18.277Z,4.73
2018-05-14T03:33:45.682Z,4.77
2018-05-14T03:36:13.069Z,4.40
2018-05-14T03:38:40.474Z,4.37
2018-05-14T03:41:07.901Z,4.50
2018-05-14T03:43:35.377Z,3.93
2018-05-14T03:46:02.890Z,4.30
2018-05-14T03:48:30.312Z,4.17
2018-05-14T03:50:57.698Z,4.57
2018-05-14T03:53:25.094Z,4.27
2018-05-14T03:55:52.496Z,3.63
2018-05-14T03:58:31.754Z,4.57
2018-05-14T04:01:09.074Z,4.50
2018-05-14T04:03:48.313Z,5.20
2018-05-14T04:06:37.639Z,4.57
2018-05-14T04:09:05.983Z,4.40
2018-05-14T04:11:33.365Z,4.77
2018-05-14T04:14:00.767Z,3.80
2018-05-14T04:16:29.068Z,4.10
2018-05-14T04:18:56.383Z,4.23
2018-05-14T04:21:23.765Z,4.40
2018-05-14T04:23:51.271Z,3.90
2018-05-14T04:26:18.661Z,4.33
2018-05-14T04:28:46.080Z,5.07
2018-05-14T04:31:13.479Z,4.03
2018-05-14T04:33:40.869Z,4.50
2018-05-14T04:36:09.216Z,5.20
2018-05-14T04:38:36.708Z,4.27
2018-05-14T04:41:04.114Z,4.13
2018-05-14T04:43:31.517Z,4.37
2018-05-14T04:45:58.975Z,4.90
2018-05-14T04:48:26.373Z,5.00
2018-05-14T04:50:53.756Z,4.53
2018-05-14T04:53:21.156Z,4.40
2018-05-14T04:55:48.597Z,4.60
2018-05-14T04:58:16.052Z,4.37
2018-05-14T05:00:43.462Z,4.43
2018-05-14T05:03:10.861Z,5.10
2018-05-14T05:05:38.340Z,5.10
2018-05-14T05:08:05.781Z,4.77
2018-05-14T05:10:33.233Z,5.03
2018-05-14T05:13:00.581Z,5.10
2018-05-14T05:15:27.977Z,5.10
2018-05-14T05:17:55.370Z,3.97
2018-05-14T05:20:22.761Z,4.10
2018-05-14T05:22:50.311Z,4.10
2018-05-14T05:25:17.616Z,4.83
2018-05-14T05:27:45.025Z,4.43
2018-05-14T05:30:12.430Z,5.47
2018-05-14T05:32:39.817Z,4.30
2018-05-14T05:35:07.299Z,4.97
2018-05-14T05:37:34.778Z,4.90
2018-05-14T05:40:02.154Z,4.30
2018-05-14T05:42:29.556Z,4.30
2018-05-14T05:44:56.949Z,4.60
2018-05-14T05:47:24.346Z,3.83
2018-05-14T05:49:51.744Z,4.20
2018-05-14T05:52:19.183Z,4.00
2018-05-14T05:54:46.653Z,4.37
2018-05-14T05:57:14.103Z,4.00
2018-05-14T05:59:41.497Z,5.00
2018-05-14T06:02:08.878Z,4.10
2018-05-14T06:04:36.297Z,5.07
2018-05-14T06:07:03.721Z,4.63
2018-05-14T06:09:31.130Z,4.47
2018-05-14T06:11:58.537Z,4.50
2018-05-14T06:14:25.994Z,4.27
2018-05-14T06:16:53.440Z,4.40
2018-05-14T06:19:20.904Z,5.27
2018-05-14T06:21:48.317Z,4.10
2018-05-14T06:24:15.837Z,4.50
2018-05-14T06:26:43.278Z,4.07
2018-05-14T06:29:10.665Z,4.03
2018-05-14T06:31:38.089Z,4.00
2018-05-14T06:34:05.555Z,4.57
2018-05-14T06:36:32.953Z,3.67
2018-05-14T06:39:00.473Z,4.10
2018-05-14T06:41:27.869Z,4.63
2018-05-14T06:43:55.286Z,4.17
2018-05-14T06:46:22.720Z,3.97
2018-05-14T06:48:50.206Z,4.53
2018-05-14T06:51:17.597Z,3.77
2018-05-14T06:53:44.999Z,4.10
2018-05-14T06:56:12.460Z,4.60
2018-05-14T06:58:39.913Z,4.20
2018-05-14T07:01:07.305Z,3.80
2018-05-14T07:03:34.707Z,3.67
2018-05-14T07:06:02.101Z,4.30
2018-05-14T07:08:29.537Z,4.50
2018-05-14T07:10:56.992Z,4.20
2018-05-14T07:13:24.448Z,3.63
2018-05-14T07:15:51.849Z,3.63
2018-05-14T07:18:19.263Z,3.83
2018-05-14T07:20:46.658Z,4.00
2018-05-14T07:23:14.090Z,3.87
2018-05-14T07:25:41.472Z,4.10
2018-05-14T07:28:08.850Z,3.90
2018-05-14T07:30:36.341Z,3.90
2018-05-14T07:33:03.737Z,4.53
2018-05-14T07:35:31.143Z,3.67
2018-05-14T07:37:58.598Z,4.20
2018-05-14T07:40:26.118Z,3.63
2018-05-14T07:42:53.457Z,3.93
2018-05-14T07:45:20.880Z,4.53
2018-05-14T07:47:48.269Z,3.50
2018-05-14T07:50:15.694Z,3.67
2018-05-14T07:52:43.072Z,4.03
2018-05-14T07:55:10.524Z,4.40
2018-05-14T07:57:37.913Z,3.53
2018-05-14T08:00:05.309Z,4.67
2018-05-14T08:02:32.784Z,4.30
2018-05-14T08:05:00.229Z,3.77
2018-05-14T08:07:27.617Z,3.30
2018-05-14T08:09:55.062Z,4.33
2018-05-14T08:12:22.460Z,4.30
2018-05-14T08:14:49.851Z,3.53
2018-05-14T08:17:17.237Z,3.33
2018-05-14T08:19:44.634Z,3.00
2018-05-14T08:22:12.025Z,3.50
2018-05-14T08:24:39.426Z,3.50
2018-05-14T08:27:06.814Z,3.70
2018-05-14T08:29:34.216Z,3.13
2018-05-14T08:32:01.644Z,3.37
2018-05-14T08:34:29.037Z,3.50
2018-05-14T08:36:56.465Z,3.20
2018-05-14T08:39:23.861Z,3.40
2018-05-14T08:41:51.258Z,2.77
2018-05-14T08:44:18.674Z,3.73
2018-05-14T08:46:46.077Z,3.53
2018-05-14T08:49:13.453Z,2.77
2018-05-14T08:51:40.844Z,3.13
2018-05-14T08:54:08.283Z,2.70
2018-05-14T08:56:35.629Z,3.23
2018-05-14T08:59:03.021Z,2.97
2018-05-14T09:01:30.424Z,3.27
2018-05-14T09:03:57.830Z,2.87
2018-05-14T09:06:25.209Z,3.23
2018-05-14T09:08:52.790Z,3.83
2018-05-14T09:11:20.190Z,2.87
2018-05-14T09:13:48.370Z,2.83
2018-05-14T09:16:15.786Z,2.97
2018-05-14T09:18:43.232Z,3.30
2018-05-14T09:21:10.628Z,2.97
2018-05-14T09:23:38.053Z,3.57
2018-05-14T09:26:05.449Z,3.10
2018-05-14T09:28:32.837Z,2.90
2018-05-14T09:31:01.194Z,3.23
2018-05-14T09:33:28.585Z,3.33
2018-05-14T09:35:56.005Z,3.53
2018-05-14T09:38:23.399Z,3.40
2018-05-14T09:40:50.865Z,3.27
2018-05-14T09:43:18.262Z,3.83
2018-05-14T09:45:46.705Z,3.00
2018-05-14T09:48:14.093Z,3.70
2018-05-14T09:50:41.525Z,4.50
2018-05-14T09:53:08.921Z,3.27
2018-05-14T09:55:36.326Z,2.93
2018-05-14T09:58:03.708Z,3.10
2018-05-14T10:00:31.109Z,3.10
2018-05-14T10:02:58.489Z,3.30
2018-05-14T10:05:25.885Z,3.00
2018-05-14T10:07:53.276Z,2.80
2018-05-14T10:10:20.668Z,3.67
2018-05-14T10:12:48.069Z,2.90
2018-05-14T10:15:15.461Z,3.47
2018-05-14T10:17:42.877Z,3.07
2018-05-14T10:20:10.293Z,2.77
2018-05-14T10:22:37.686Z,2.87
2018-05-14T10:25:05.104Z,2.50
2018-05-14T10:27:32.622Z,2.80
2018-05-14T10:30:00.013Z,2.77
2018-05-14T10:32:27.460Z,2.80
2018-05-14T10:34:54.852Z,2.97
2018-05-14T10:37:22.308Z,3.17
2018-05-14T10:39:49.729Z,3.07
2018-05-14T10:42:17.222Z,3.33
2018-05-14T10:44:44.660Z,2.80
2018-05-14T10:47:12.053Z,3.10
2018-05-14T10:49:39.458Z,2.90
2018-05-14T10:52:07.450Z,2.80
2018-05-14T10:54:34.837Z,2.50
2018-05-14T10:57:02.269Z,4.00
2018-05-14T10:59:29.653Z,3.20
2018-05-14T11:01:57.053Z,3.50
2018-05-14T11:04:24.532Z,2.93
2018-05-14T11:06:51.925Z,3.90
2018-05-14T11:09:19.309Z,2.60
2018-05-14T11:11:46.702Z,4.03
2018-05-14T11:14:14.157Z,3.20
2018-05-14T11:16:41.617Z,2.93
2018-05-14T11:19:09.010Z,2.80
2018-05-14T11:21:36.405Z,2.97
2018-05-14T11:24:03.888Z,2.80
2018-05-14T11:26:31.273Z,2.87
2018-05-14T11:28:58.725Z,2.60
2018-05-14T11:31:26.153Z,3.60
2018-05-14T11:33:53.609Z,2.80
2018-05-14T11:36:21.000Z,2.93
2018-05-14T11:38:48.427Z,2.57
2018-05-14T11:41:15.882Z,3.13
2018-05-14T11:43:43.270Z,2.50
2018-05-14T11:46:10.689Z,2.70
2018-05-14T11:48:38.076Z,2.80
2018-05-14T11:51:05.552Z,3.10
2018-05-14T11:53:32.965Z,3.87
2018-05-14T11:56:00.469Z,3.10
2018-05-14T11:58:28.238Z,2.40
2018-05-14T12:00:55.693Z,3.77
2018-05-14T12:03:23.102Z,3.27
2018-05-14T12:05:50.606Z,3.00
2018-05-14T12:08:17.993Z,3.43
2018-05-14T12:10:45.438Z,3.73
2018-05-14T12:13:12.881Z,3.13
2018-05-14T12:15:40.333Z,3.67
2018-05-14T12:18:07.802Z,3.50
2018-05-14T12:20:35.193Z,2.90
2018-05-14T12:23:02.582Z,3.00
2018-05-14T12:25:30.081Z,3.10
2018-05-14T12:27:57.476Z,2.90
2018-05-14T12:30:24.872Z,2.97
2018-05-14T12:32:52.270Z,3.60
2018-05-14T12:35:19.677Z,3.20
2018-05-14T12:37:47.189Z,3.10
2018-05-14T12:40:14.569Z,3.07
2018-05-14T12:42:42.062Z,3.63
2018-05-14T12:45:09.529Z,3.07
2018-05-14T12:47:36.915Z,3.27
2018-05-14T12:50:04.329Z,4.60
2018-05-14T12:52:31.817Z,2.60
2018-05-14T12:54:59.249Z,3.00
2018-05-14T12:57:26.649Z,3.30
2018-05-14T12:59:54.036Z,2.60
2018-05-14T13:02:21.446Z,3.50
2018-05-14T13:04:48.836Z,3.47
2018-05-14T13:07:16.239Z,2.90
2018-05-14T13:09:43.685Z,3.10
2018-05-14T13:12:11.077Z,3.50
2018-05-14T13:14:38.476Z,3.40
2018-05-14T13:17:05.873Z,3.60
2018-05-14T13:19:33.357Z,2.63
2018-05-14T13:22:00.759Z,3.30
2018-05-14T13:24:28.145Z,3.10
2018-05-14T13:26:55.603Z,3.10
2018-05-14T13:29:22.991Z,3.30
2018-05-14T13:31:50.407Z,3.00
2018-05-14T13:34:17.917Z,3.00
2018-05-14T13:36:45.324Z,3.60
2018-05-14T13:39:12.707Z,3.20
2018-05-14T13:41:40.117Z,2.83
2018-05-14T13:44:07.539Z,3.80
2018-05-14T13:46:34.944Z,3.17
2018-05-14T13:49:02.553Z,3.30
2018-05-14T13:51:30.001Z,3.87
2018-05-14T13:53:57.385Z,3.20
2018-05-14T13:56:24.814Z,3.97
2018-05-14T13:58:52.269Z,4.80
2018-05-14T14:01:19.739Z,3.40
2018-05-14T14:03:47.115Z,3.80
2018-05-14T14:06:14.517Z,3.73
2018-05-14T14:08:42.000Z,3.17
2018-05-14T14:11:09.389Z,4.10
2018-05-14T14:13:36.818Z,3.33
2018-05-14T14:16:04.228Z,3.23
2018-05-14T14:18:31.624Z,3.50
2018-05-14T14:20:59.093Z,3.70
2018-05-14T14:23:26.577Z,3.37
2018-05-14T14:25:53.877Z,3.10
2018-05-14T14:28:21.282Z,4.33
2018-05-14T14:30:48.680Z,3.30
2018-05-14T14:33:16.083Z,3.70
2018-05-14T14:35:43.567Z,3.07
2018-05-14T14:38:10.987Z,3.70
2018-05-14T14:40:38.444Z,3.17
2018-05-14T14:43:05.841Z,4.67
2018-05-14T14:45:33.241Z,3.17
2018-05-14T14:48:00.709Z,3.80
2018-05-14T14:50:28.089Z,3.40
2018-05-14T14:52:55.501Z,3.10
2018-05-14T14:55:22.901Z,3.27
2018-05-14T14:57:50.742Z,3.60
2018-05-14T15:00:18.155Z,3.93
2018-05-14T15:02:45.554Z,3.50
2018-05-14T15:05:13.025Z,3.50
2018-05-14T15:07:40.475Z,3.30
2018-05-14T15:10:07.858Z,4.03
2018-05-14T15:12:35.260Z,3.90
2018-05-14T15:15:02.657Z,3.90
2018-05-14T15:17:30.094Z,4.10
2018-05-14T15:19:57.647Z,4.60
2018-05-14T15:22:24.991Z,3.90
2018-05-14T15:24:52.373Z,3.80
2018-05-14T15:27:19.773Z,4.10
2018-05-14T15:29:47.280Z,3.77
2018-05-14T15:32:14.635Z,4.20
2018-05-14T15:34:42.027Z,4.50
2018-05-14T15:37:09.425Z,3.73
2018-05-14T15:39:36.818Z,4.03
2018-05-14T15:42:04.255Z,3.37
2018-05-14T15:44:31.654Z,3.90
2018-05-14T15:46:59.054Z,3.60
2018-05-14T15:49:26.441Z,4.07
2018-05-14T15:51:53.872Z,3.33
2018-05-14T15:54:21.337Z,3.50
2018-05-14T15:56:48.805Z,4.30
2018-05-14T15:59:16.189Z,3.70
2018-05-14T16:01:43.649Z,3.80
2018-05-14T16:04:10.978Z,3.70
2018-05-14T16:06:38.429Z,3.80
2018-05-14T16:09:05.894Z,3.47
2018-05-14T16:11:33.281Z,3.90
2018-05-14T16:14:00.687Z,3.70
2018-05-14T16:16:28.161Z,3.77
2018-05-14T16:18:55.619Z,5.00
2018-05-14T16:21:23.018Z,3.63
2018-05-14T16:23:50.416Z,3.87
2018-05-14T16:26:17.805Z,2.97
2018-05-14T16:28:45.237Z,3.13
2018-05-14T16:31:12.654Z,3.70
2018-05-14T16:33:40.097Z,2.73
2018-05-14T16:36:07.557Z,3.50
2018-05-14T16:38:34.960Z,2.90
2018-05-14T16:41:02.379Z,3.70
2018-05-14T16:43:29.825Z,3.27
2018-05-14T16:45:57.217Z,3.10
2018-05-14T16:48:24.642Z,3.23
2018-05-14T16:50:52.330Z,2.57
2018-05-14T16:53:19.928Z,2.90
2018-05-14T16:55:47.538Z,2.90
2018-05-14T16:58:15.056Z,3.27
2018-05-14T17:00:42.582Z,3.30
2018-05-14T17:03:10.153Z,2.93
2018-05-14T17:05:37.561Z,2.90
2018-05-14T17:08:05.036Z,3.10
2018-05-14T17:10:32.497Z,2.43
2018-05-14T17:12:59.980Z,2.70
2018-05-14T17:15:27.423Z,3.37
2018-05-14T17:17:54.898Z,2.20
2018-05-14T17:20:22.282Z,3.23
2018-05-14T17:22:49.677Z,2.87
2018-05-14T17:25:17.195Z,3.30
2018-05-14T17:27:44.591Z,2.53
2018-05-14T17:30:11.988Z,2.77
2018-05-14T17:32:39.376Z,2.83
2018-05-14T17:35:06.810Z,2.70
2018-05-14T17:37:34.215Z,2.67
2018-05-14T17:40:01.720Z,3.07
2018-05-14T17:42:29.181Z,2.90
2018-05-14T17:44:56.627Z,2.40
2018-05-14T17:47:24.025Z,2.97
2018-05-14T17:49:51.418Z,3.13
2018-05-14T17:52:18.893Z,3.33
2018-05-14T17:54:46.351Z,2.93
2018-05-14T17:57:13.749Z,3.20
2018-05-14T17:59:41.140Z,2.83
2018-05-14T18:02:08.634Z,2.90
2018-05-14T18:04:36.013Z,3.90
2018-05-14T18:07:03.409Z,2.77
2018-05-14T18:09:30.800Z,4.23
2018-05-14T18:11:58.198Z,2.80
2018-05-14T18:14:25.602Z,2.80
2018-05-14T18:16:53.069Z,3.17
2018-05-14T18:19:20.481Z,2.80
2018-05-14T18:21:47.868Z,3.13
2018-05-14T18:24:15.325Z,2.80
2018-05-14T18:26:49.248Z,3.13
2018-05-14T18:29:22.225Z,3.13
2018-05-14T18:31:55.337Z,3.13
2018-05-14T18:34:28.256Z,3.83
2018-05-14T18:36:55.657Z,3.33
2018-05-14T18:39:23.135Z,3.30
2018-05-14T18:41:50.528Z,3.20
2018-05-14T18:44:17.929Z,3.50
2018-05-14T18:46:45.318Z,3.20
2018-05-14T18:49:12.756Z,3.57
2018-05-14T18:51:40.133Z,3.47
2018-05-14T18:54:07.549Z,3.27
2018-05-14T18:56:35.005Z,4.10
2018-05-14T18:59:02.470Z,3.43
2018-05-14T19:01:29.879Z,3.00
2018-05-14T19:03:57.270Z,3.73
2018-05-14T19:06:24.732Z,3.33
2018-05-14T19:08:52.134Z,3.27
2018-05-14T19:11:25.187Z,3.57
2018-05-14T19:13:52.581Z,3.77
2018-05-14T19:16:25.738Z,3.77
2018-05-14T19:18:53.128Z,3.20
2018-05-14T19:21:20.533Z,3.53
2018-05-14T19:23:53.088Z,3.53
2018-05-14T19:26:20.365Z,3.80
2018-05-14T19:28:53.378Z,3.30
2018-05-14T19:31:20.769Z,3.83
2018-05-14T19:33:53.856Z,3.87
2018-05-14T19:36:21.250Z,3.77
2018-05-14T19:38:48.716Z,3.83
2018-05-14T19:41:16.108Z,4.10
2018-05-14T19:43:43.530Z,3.57
2018-05-14T19:46:10.986Z,3.30
2018-05-14T19:48:38.377Z,3.90
2018-05-14T19:51:05.793Z,4.30
2018-05-14T19:53:33.223Z,4.80
2018-05-14T19:56:00.610Z,4.37
2018-05-14T19:58:28.070Z,3.93
2018-05-14T20:00:55.527Z,4.57
2018-05-14T20:03:22.881Z,3.63
2018-05-14T20:05:50.276Z,3.67
2018-05-14T20:08:17.705Z,3.37
2018-05-14T20:10:45.146Z,3.13
2018-05-14T20:13:12.541Z,3.47
2018-05-14T20:15:41.767Z,3.77
2018-05-14T20:18:09.162Z,3.63
2018-05-14T20:20:36.581Z,4.00
2018-05-14T20:23:04.072Z,3.73
2018-05-14T20:25:31.504Z,3.60
2018-05-14T20:27:58.986Z,3.50
2018-05-14T20:30:26.382Z,4.40
2018-05-14T20:32:53.769Z,3.67
2018-05-14T20:35:21.164Z,4.27
2018-05-14T20:37:48.550Z,3.80
2018-05-14T20:40:15.957Z,3.20
2018-05-14T20:42:43.349Z,3.60
2018-05-14T20:45:10.762Z,3.63
2018-05-14T20:47:38.232Z,3.90
2018-05-14T20:50:05.689Z,4.30
2018-05-14T20:52:33.152Z,3.90
2018-05-14T20:55:00.536Z,3.87
2018-05-14T20:57:27.957Z,3.57
2018-05-14T20:59:55.417Z,3.37
2018-05-14T21:02:22.872Z,3.90
2018-05-14T21:04:50.293Z,3.93
2018-05-14T21:07:17.681Z,3.63
2018-05-14T21:09:45.081Z,3.50
2018-05-14T21:12:12.497Z,3.87
2018-05-14T21:14:39.903Z,3.33
2018-05-14T21:17:07.312Z,3.90
2018-05-14T21:19:34.700Z,4.13
2018-05-14T21:22:02.134Z,3.63
2018-05-14T21:24:29.529Z,3.83
2018-05-14T21:26:56.929Z,4.50
2018-05-14T21:29:24.355Z,4.00
2018-05-14T21:31:51.756Z,3.67
2018-05-14T21:34:19.255Z,4.00
2018-05-14T21:36:46.635Z,5.40
2018-05-14T21:39:14.053Z,4.30
2018-05-14T21:41:41.513Z,3.70
2018-05-14T21:44:08.973Z,4.17
2018-05-14T21:46:36.433Z,3.63
2018-05-14T21:49:03.834Z,3.97
2018-05-14T21:51:31.251Z,4.90
2018-05-14T21:53:58.650Z,4.30
2018-05-14T21:56:26.053Z,3.73
2018-05-14T21:58:53.453Z,3.77
2018-05-14T22:01:20.866Z,3.90
2018-05-14T22:03:48.277Z,4.33
2018-05-14T22:06:15.749Z,3.80
2018-05-14T22:08:43.135Z,4.20
2018-05-14T22:11:10.585Z,3.47
2018-05-14T22:13:38.053Z,3.40
2018-05-14T22:16:05.519Z,4.33
2018-05-14T22:18:32.914Z,3.67
2018-05-14T22:21:00.309Z,4.20
2018-05-14T22:23:27.777Z,3.80
2018-05-14T22:25:55.229Z,3.57
2018-05-14T22:28:22.631Z,4.03
2018-05-14T22:30:50.029Z,3.50
2018-05-14T22:33:17.565Z,3.80
2018-05-14T22:35:44.977Z,4.13
2018-05-14T22:38:12.369Z,3.50
2018-05-14T22:40:39.785Z,3.93
2018-05-14T22:43:07.226Z,4.03
2018-05-14T22:45:34.620Z,3.27
2018-05-14T22:48:02.041Z,3.80
2018-05-14T22:50:29.517Z,4.20
2018-05-14T22:52:56.905Z,3.77
2018-05-14T22:55:24.304Z,4.40
2018-05-14T22:57:51.757Z,3.70
2018-05-14T23:00:24.505Z,3.60
2018-05-14T23:02:52.005Z,4.30
2018-05-14T23:05:19.415Z,5.50
2018-05-14T23:07:46.825Z,4.70
2018-05-14T23:10:14.237Z,4.40
2018-05-14T23:12:41.640Z,3.80
2018-05-14T23:15:09.123Z,4.10
2018-05-14T23:17:36.539Z,4.20
2018-05-14T23:20:03.929Z,3.73
2018-05-14T23:22:41.253Z,4.50
2018-05-14T23:25:08.644Z,4.47
2018-05-14T23:27:36.059Z,4.40
2018-05-14T23:30:03.964Z,4.45
2018-05-14T23:32:31.525Z,4.77
2018-05-14T23:34:59.033Z,4.40
2018-05-14T23:37:26.425Z,4.00
2018-05-14T23:39:53.825Z,4.40
2018-05-14T23:42:21.217Z,4.60
2018-05-14T23:44:48.640Z,3.93
2018-05-14T23:47:16.013Z,4.33
2018-05-14T23:49:43.429Z,4.73
2018-05-14T23:52:10.820Z,4.80
2018-05-14T23:54:38.222Z,4.17
2018-05-14T23:57:05.676Z,3.80
2018-05-14T23:59:33.116Z,4.40
